Time;durP1;ratioP1;P1;durP2;ratioP2;P2;SDS_P1;SDS_P2;PMS_P1;PMS_P2;Temp;Humidity;BMP_temperature;BMP_pressure;BME280_temperature;BME280_humidity;BME280_pressure;Samples;Min_cycle;Max_cycle;Signal;HPM_P1;HPM_P2
2023/01/15 00:01:24;;;;;;;5.78;1.40;;;6.50;99.90;;;;;;5110559;28;20044;-84
2023/01/15 00:03:51;;;;;;;11.25;2.30;;;6.60;99.90;;;;;;5109852;28;20059;-84
2023/01/15 00:06:17;;;;;;;8.98;2.95;;;6.50;99.90;;;;;;5091587;28;20083;-84
2023/01/15 00:08:43;;;;;;;11.85;2.75;;;6.60;99.90;;;;;;5092232;28;20054;-84
2023/01/15 00:11:09;;;;;;;17.88;2.83;;;6.60;99.90;;;;;;5109733;28;20069;-85
2023/01/15 00:13:35;;;;;;;12.57;2.30;;;6.60;99.90;;;;;;5092245;28;20056;-84
2023/01/15 00:16:05;;;;;;;8.10;1.60;;;6.70;99.90;;;;;;5110388;28;20039;-84
2023/01/15 00:18:31;;;;;;;8.68;1.65;;;6.70;99.90;;;;;;5109407;28;20093;-84
2023/01/15 00:21:05;;;;;;;14.13;2.30;;;6.70;99.90;;;;;;5110719;28;20050;-84
2023/01/15 00:29:02;;;;;;;10.27;1.98;;;6.70;99.90;;;;;;5114027;28;20048;-84
2023/01/15 00:31:29;;;;;;;11.65;1.70;;;6.70;99.90;;;;;;5113337;28;20524;-83
2023/01/15 00:33:55;;;;;;;10.43;2.15;;;6.70;99.90;;;;;;5086206;28;20075;-84
2023/01/15 00:36:21;;;;;;;13.93;3.10;;;6.70;99.90;;;;;;5114339;28;20422;-84
2023/01/15 00:38:46;;;;;;;9.98;3.05;;;6.70;99.90;;;;;;5094851;28;20051;-84
2023/01/15 00:41:12;;;;;;;11.10;3.13;;;6.70;99.90;;;;;;5095428;28;20039;-84
2023/01/15 00:43:38;;;;;;;14.18;2.13;;;6.70;99.90;;;;;;5118435;27;20116;-84
2023/01/15 00:46:04;;;;;;;12.15;2.65;;;6.70;99.90;;;;;;5113055;28;20032;-84
2023/01/15 00:48:31;;;;;;;12.45;2.95;;;6.70;99.90;;;;;;5113687;28;20048;-85
2023/01/15 00:50:57;;;;;;;16.52;2.88;;;6.70;99.90;;;;;;5113669;28;20053;-84
2023/01/15 00:53:22;;;;;;;10.45;1.98;;;6.70;99.90;;;;;;5094713;28;20055;-84
2023/01/15 00:55:48;;;;;;;11.13;2.13;;;6.70;99.90;;;;;;5095420;28;20039;-84
2023/01/15 00:58:14;;;;;;;10.52;1.95;;;6.60;99.90;;;;;;5113402;28;20136;-84
2023/01/15 01:00:39;;;;;;;11.13;1.77;;;6.70;99.90;;;;;;5112677;28;20537;-85
2023/01/15 01:03:05;;;;;;;8.65;1.80;;;6.60;99.90;;;;;;5113492;28;20031;-85
2023/01/15 01:05:31;;;;;;;12.68;2.20;;;6.70;99.90;;;;;;5095005;28;20039;-84
2023/01/15 01:07:58;;;;;;;13.70;2.28;;;6.70;99.90;;;;;;5112593;28;20043;-84
2023/01/15 01:10:25;;;;;;;8.77;1.92;;;6.60;99.90;;;;;;5094865;28;20048;-84
2023/01/15 01:12:51;;;;;;;12.77;2.47;;;6.60;99.90;;;;;;5094302;28;20050;-84
2023/01/15 01:15:20;;;;;;;13.88;2.35;;;6.60;99.90;;;;;;5113092;28;20044;-84
2023/01/15 01:17:46;;;;;;;14.95;3.20;;;6.60;99.90;;;;;;5112584;28;20061;-84
2023/01/15 01:20:14;;;;;;;12.93;2.20;;;6.50;99.90;;;;;;5094279;28;20039;-84
2023/01/15 01:22:40;;;;;;;17.65;3.28;;;6.50;99.90;;;;;;5113070;28;20040;-84
2023/01/15 01:25:07;;;;;;;13.50;2.13;;;6.50;99.90;;;;;;5112916;28;20035;-85
2023/01/15 01:27:32;;;;;;;12.20;2.22;;;6.50;99.90;;;;;;5111792;28;20486;-84
2023/01/15 01:29:58;;;;;;;14.30;5.13;;;6.50;99.90;;;;;;5093399;28;20049;-84
2023/01/15 01:32:24;;;;;;;8.63;1.83;;;6.60;99.90;;;;;;5112775;28;20036;-84
2023/01/15 01:34:49;;;;;;;13.55;2.47;;;6.60;99.90;;;;;;5112371;28;20067;-84
2023/01/15 01:37:15;;;;;;;9.23;2.35;;;6.60;99.90;;;;;;5077294;28;20050;-85
2023/01/15 01:39:41;;;;;;;14.25;2.10;;;6.50;99.90;;;;;;5112321;28;20046;-84
2023/01/15 01:42:16;;;;;;;11.57;2.22;;;6.50;99.90;;;;;;5093765;28;20452;-84
2023/01/15 01:44:42;;;;;;;9.55;1.75;;;6.50;99.90;;;;;;5112617;28;20050;-85
2023/01/15 01:47:14;;;;;;;10.40;2.10;;;6.50;99.90;;;;;;5112577;28;20117;-84
2023/01/15 01:49:43;;;;;;;11.40;2.30;;;6.50;99.90;;;;;;5093795;28;20048;-84
2023/01/15 01:52:13;;;;;;;14.30;3.15;;;6.50;99.90;;;;;;5094089;28;20524;-83
2023/01/15 01:54:39;;;;;;;;;;;6.50;99.90;;;;;;5094822;28;20051;-84
2023/01/15 01:57:07;;;;;;;16.08;2.05;;;6.60;99.90;;;;;;5114593;28;19970;-84
2023/01/15 01:59:34;;;;;;;9.30;1.85;;;6.60;99.90;;;;;;5116938;28;20035;-85
2023/01/15 02:02:00;;;;;;;12.93;2.28;;;6.60;99.90;;;;;;5116912;28;20551;-86
2023/01/15 02:04:27;;;;;;;13.98;2.08;;;6.70;99.90;;;;;;5117084;28;20111;-84
2023/01/15 02:06:54;;;;;;;10.30;2.03;;;6.60;99.90;;;;;;5098597;28;20040;-84
2023/01/15 02:09:20;;;;;;;12.13;1.85;;;6.60;99.90;;;;;;5097893;28;20040;-84
2023/01/15 02:11:48;;;;;;;12.40;2.15;;;6.60;99.90;;;;;;5116822;28;20395;-84
2023/01/15 02:14:24;;;;;;;14.07;2.03;;;6.60;99.90;;;;;;5098185;28;20040;-84
2023/01/15 02:17:07;;;;;;;14.75;2.67;;;6.60;99.90;;;;;;5097540;28;20100;-85
2023/01/15 02:20:21;;;;;;;11.50;2.15;;;6.60;99.90;;;;;;5116899;28;20050;-86
2023/01/15 02:23:24;;;;;;;13.65;2.08;;;6.60;99.90;;;;;;5068919;28;20040;-86
2023/01/15 02:26:02;;;;;;;12.07;2.42;;;6.50;99.90;;;;;;5098466;28;20036;-85
2023/01/15 02:28:32;;;;;;;12.25;3.33;;;6.50;99.90;;;;;;5116678;28;20539;-86
2023/01/15 02:31:01;;;;;;;;;;;6.50;99.90;;;;;;5115531;28;20405;-85
2023/01/15 02:33:38;;;;;;;11.13;2.55;;;6.50;99.90;;;;;;5116538;28;20390;-85
2023/01/15 02:36:10;;;;;;;11.85;3.28;;;6.50;99.90;;;;;;5116589;28;20561;-85
2023/01/15 02:38:40;;;;;;;11.35;2.35;;;6.60;99.90;;;;;;5097642;28;20035;-84
2023/01/15 02:41:15;;;;;;;9.30;2.10;;;6.60;99.90;;;;;;5093698;28;20052;-84
2023/01/15 02:43:48;;;;;;;13.02;2.35;;;6.60;99.90;;;;;;5093467;28;20051;-84
2023/01/15 02:46:17;;;;;;;9.75;2.33;;;6.60;99.90;;;;;;5111856;28;20035;-84
2023/01/15 02:48:48;;;;;;;12.82;2.42;;;6.60;99.90;;;;;;5093174;28;20040;-84
2023/01/15 02:51:17;;;;;;;9.85;2.25;;;6.70;99.90;;;;;;5111190;28;20047;-84
2023/01/15 02:53:47;;;;;;;9.07;1.77;;;6.70;99.90;;;;;;5111708;28;20039;-84
2023/01/15 02:56:15;;;;;;;15.60;3.78;;;6.70;99.90;;;;;;5093549;28;20062;-84
2023/01/15 02:58:43;;;;;;;12.27;2.38;;;6.70;99.90;;;;;;5110756;28;20379;-84
2023/01/15 03:01:41;;;;;;;17.23;3.45;;;6.70;99.90;;;;;;5093390;28;20044;-84
2023/01/15 03:04:20;;;;;;;19.48;2.33;;;6.70;99.90;;;;;;5111476;28;20040;-84
2023/01/15 03:06:52;;;;;;;17.67;2.63;;;6.60;99.90;;;;;;5110859;28;20088;-84
2023/01/15 03:09:18;;;;;;;13.63;2.88;;;6.60;99.90;;;;;;5111304;28;20035;-85
2023/01/15 03:11:53;;;;;;;5.18;1.52;;;6.60;99.90;;;;;;5111284;28;20044;-84
2023/01/15 03:14:48;;;;;;;8.65;1.83;;;6.50;99.90;;;;;;5111485;28;20079;-84
2023/01/15 03:17:21;;;;;;;12.00;2.28;;;6.40;99.90;;;;;;5092769;28;20052;-84
2023/01/15 03:19:59;;;;;;;15.00;1.83;;;6.40;99.90;;;;;;5110477;28;20502;-84
2023/01/15 03:22:27;;;;;;;14.35;2.83;;;6.40;99.90;;;;;;5092901;28;20051;-84
2023/01/15 03:25:04;;;;;;;10.68;1.80;;;6.50;99.90;;;;;;5092914;28;20043;-84
2023/01/15 03:27:30;;;;;;;10.65;2.20;;;6.40;99.90;;;;;;5092284;28;20126;-85
2023/01/15 03:30:16;;;;;;;12.43;2.47;;;6.40;99.90;;;;;;5092823;28;20048;-84
2023/01/15 03:32:42;;;;;;;6.72;1.90;;;6.40;99.90;;;;;;5093073;28;20398;-84
2023/01/15 03:35:43;;;;;;;13.57;2.05;;;6.40;99.90;;;;;;5092577;28;20040;-84
2023/01/15 03:38:14;;;;;;;12.73;1.95;;;6.40;99.90;;;;;;5110950;28;20039;-84
2023/01/15 03:40:51;;;;;;;11.77;2.20;;;6.40;99.90;;;;;;5110314;28;20067;-84
2023/01/15 03:43:41;;;;;;;10.57;2.83;;;6.40;99.90;;;;;;5110946;28;20027;-84
2023/01/15 03:46:28;;;;;;;14.52;3.10;;;6.50;99.90;;;;;;5093011;28;20051;-84
2023/01/15 03:49:17;;;;;;;9.18;1.92;;;6.50;99.90;;;;;;5092305;28;20043;-84
2023/01/15 03:52:01;;;;;;;11.20;2.42;;;6.50;99.90;;;;;;5101131;28;20044;-84
2023/01/15 03:54:32;;;;;;;14.48;2.58;;;6.50;99.90;;;;;;5110594;28;20067;-85
2023/01/15 03:57:23;;;;;;;11.15;2.35;;;6.50;99.90;;;;;;5110718;28;20478;-85
2023/01/15 03:59:54;;;;;;;15.02;2.13;;;6.50;99.90;;;;;;5110586;28;20036;-84
2023/01/15 04:02:21;;;;;;;12.57;2.45;;;6.40;99.90;;;;;;5111805;28;20509;-84
2023/01/15 04:04:50;;;;;;;9.40;2.70;;;6.40;99.90;;;;;;5112186;28;20043;-85
2023/01/15 04:07:16;;;;;;;8.95;2.20;;;6.40;99.90;;;;;;5094218;28;20043;-84
2023/01/15 04:09:42;;;;;;;11.57;2.15;;;6.30;99.90;;;;;;5093230;28;20122;-83
2023/01/15 04:12:09;;;;;;;9.82;2.10;;;6.40;99.90;;;;;;5112429;28;20115;-84
2023/01/15 04:14:35;;;;;;;16.50;3.05;;;6.40;99.90;;;;;;5112290;28;20100;-84
2023/01/15 04:17:00;;;;;;;12.15;2.90;;;6.40;99.90;;;;;;5094487;28;20051;-84
2023/01/15 04:19:26;;;;;;;10.77;2.60;;;6.40;99.90;;;;;;5114444;28;20081;-85
2023/01/15 04:21:52;;;;;;;10.43;2.33;;;6.40;99.90;;;;;;5095680;28;20039;-85
2023/01/15 04:24:17;;;;;;;9.75;1.75;;;6.50;99.90;;;;;;5114333;28;20027;-85
2023/01/15 04:26:43;;;;;;;10.85;1.88;;;6.50;99.90;;;;;;5114570;28;20394;-84
2023/01/15 04:29:09;;;;;;;12.38;2.47;;;6.40;99.90;;;;;;5113813;28;20443;-84
2023/01/15 04:31:35;;;;;;;8.93;2.00;;;6.40;99.90;;;;;;5114344;28;20031;-85
2023/01/15 04:34:02;;;;;;;19.33;2.75;;;6.40;99.90;;;;;;5095919;28;20569;-84
2023/01/15 04:36:28;;;;;;;10.73;1.60;;;6.50;99.90;;;;;;5113827;28;20050;-84
2023/01/15 04:38:56;;;;;;;14.50;2.33;;;6.40;99.90;;;;;;5129881;27;20115;-84
2023/01/15 04:44:06;;;;;;;13.35;1.95;;;6.40;99.90;;;;;;5113346;28;20048;-84
2023/01/15 04:46:34;;;;;;;9.98;2.42;;;6.40;99.90;;;;;;5095985;28;20042;-84
2023/01/15 04:49:00;;;;;;;11.18;2.03;;;6.30;99.90;;;;;;5095706;28;20108;-84
2023/01/15 04:51:25;;;;;;;13.50;2.72;;;6.30;99.90;;;;;;5095180;28;20043;-84
2023/01/15 04:53:52;;;;;;;19.00;4.25;;;6.30;99.90;;;;;;5113707;28;20479;-85
2023/01/15 04:56:18;;;;;;;12.13;2.63;;;6.30;99.90;;;;;;5113742;28;20513;-85
2023/01/15 04:58:44;;;;;;;8.45;1.90;;;6.30;99.90;;;;;;5094851;28;20044;-84
2023/01/15 05:01:16;;;;;;;10.02;2.60;;;6.20;99.90;;;;;;5113710;28;20093;-85
2023/01/15 05:03:42;;;;;;;13.32;1.83;;;6.20;99.90;;;;;;5113659;28;20028;-84
2023/01/15 05:06:09;;;;;;;10.65;2.55;;;6.20;99.90;;;;;;5095049;28;20054;-84
2023/01/15 05:08:35;;;;;;;5.93;2.00;;;6.20;99.90;;;;;;5095316;28;20050;-84
2023/01/15 05:11:05;;;;;;;10.88;2.10;;;6.20;99.90;;;;;;5112478;28;20043;-84
2023/01/15 05:13:32;;;;;;;;;;;6.20;99.90;;;;;;5113962;28;20394;-84
2023/01/15 05:16:24;;;;;;;15.18;3.65;;;6.20;99.90;;;;;;5095037;28;19922;-84
2023/01/15 05:18:52;;;;;;;10.93;2.47;;;6.20;99.90;;;;;;5087794;28;20482;-84
2023/01/15 05:21:21;;;;;;;7.10;1.40;;;6.20;99.90;;;;;;5113567;28;20047;-84
2023/01/15 05:23:49;;;;;;;10.13;2.20;;;6.10;99.90;;;;;;5113177;28;20502;-84
2023/01/15 05:26:15;;;;;;;11.77;2.35;;;6.20;99.90;;;;;;5094615;28;20066;-84
2023/01/15 05:28:41;;;;;;;8.85;1.55;;;6.10;99.90;;;;;;5113124;28;20092;-84
2023/01/15 05:31:15;;;;;;;11.77;2.50;;;6.10;99.90;;;;;;5113050;28;20040;-83
2023/01/15 05:33:42;;;;;;;12.55;2.17;;;6.10;99.90;;;;;;5112392;28;20054;-84
2023/01/15 05:36:11;;;;;;;8.13;1.77;;;6.10;99.90;;;;;;5094764;28;20069;-84
2023/01/15 05:38:37;;;;;;;8.13;1.65;;;6.10;99.90;;;;;;5112968;28;20036;-84
2023/01/15 05:41:47;;;;;;;9.00;2.00;;;6.10;99.90;;;;;;5112314;28;20136;-84
2023/01/15 05:43:50;;;;;;;11.45;2.13;;;6.10;99.90;;;;;;5112412;28;20376;-84
2023/01/15 05:46:16;;;;;;;13.88;2.70;;;6.10;99.90;;;;;;5109934;28;20039;-84
2023/01/15 05:48:42;;;;;;;5.82;1.27;;;6.00;99.90;;;;;;5092077;28;20058;-85
2023/01/15 05:51:08;;;;;;;11.93;1.83;;;6.10;99.90;;;;;;5092143;28;20047;-84
2023/01/15 05:53:34;;;;;;;11.90;2.00;;;6.10;99.90;;;;;;5074499;28;20043;-84
2023/01/15 05:56:00;;;;;;;8.43;1.90;;;6.10;99.90;;;;;;5092678;28;20043;-84
2023/01/15 05:58:26;;;;;;;13.48;2.22;;;6.10;99.90;;;;;;5112683;28;20090;-85
2023/01/15 06:00:53;;;;;;;12.55;2.28;;;6.10;99.90;;;;;;5093628;28;20451;-84
2023/01/15 06:03:21;;;;;;;12.25;2.08;;;6.00;99.90;;;;;;5094205;28;20074;-84
2023/01/15 06:05:54;;;;;;;8.77;1.67;;;5.90;99.90;;;;;;5094543;28;20040;-83
2023/01/15 06:08:22;;;;;;;13.90;2.45;;;5.90;99.90;;;;;;5093685;28;20078;-84
2023/01/15 06:10:48;;;;;;;11.73;2.65;;;5.90;99.90;;;;;;5112238;28;20040;-84
2023/01/15 06:13:16;;;;;;;12.15;2.00;;;5.80;99.90;;;;;;5094245;28;20082;-84
2023/01/15 06:15:43;;;;;;;8.15;1.77;;;5.80;99.90;;;;;;5093361;28;20071;-85
2023/01/15 06:18:09;;;;;;;10.68;2.22;;;5.80;99.90;;;;;;5111901;28;20052;-84
2023/01/15 06:20:39;;;;;;;9.30;1.80;;;5.80;99.90;;;;;;5094283;28;20382;-84
2023/01/15 06:23:06;;;;;;;8.93;2.45;;;5.80;99.90;;;;;;5092502;28;20475;-84
2023/01/15 06:25:35;;;;;;;8.05;1.90;;;5.80;99.90;;;;;;5112227;28;20425;-84
2023/01/15 06:28:05;;;;;;;6.20;1.65;;;5.80;99.90;;;;;;5111413;28;20097;-84
2023/01/15 06:30:31;;;;;;;9.65;1.98;;;5.80;99.90;;;;;;5093700;28;20087;-85
2023/01/15 06:32:57;;;;;;;10.70;1.83;;;5.80;99.90;;;;;;5093698;28;20494;-85
2023/01/15 06:35:22;;;;;;;11.73;2.00;;;5.80;99.90;;;;;;5093047;28;20058;-84
2023/01/15 06:37:49;;;;;;;12.60;3.05;;;5.80;99.90;;;;;;5076762;28;20043;-84
2023/01/15 06:40:15;;;;;;;7.60;2.67;;;5.80;99.90;;;;;;5111732;28;20683;-84
2023/01/15 06:48:10;;;;;;;6.50;1.67;;;5.70;99.90;;;;;;5111547;28;20418;-84
2023/01/15 06:50:36;;;;;;;15.45;2.45;;;5.70;99.90;;;;;;5111021;28;20040;-84
2023/01/15 06:53:01;;;;;;;6.88;1.30;;;5.60;99.90;;;;;;5093218;28;20050;-84
2023/01/15 06:55:27;;;;;;;10.65;2.17;;;5.60;99.90;;;;;;5093492;28;20051;-84
2023/01/15 06:57:53;;;;;;;9.52;1.90;;;5.60;99.90;;;;;;5110744;28;20042;-84
2023/01/15 07:00:19;;;;;;;9.50;2.55;;;5.70;99.90;;;;;;5110290;28;20036;-84
2023/01/15 07:02:44;;;;;;;13.35;3.20;;;5.60;99.90;;;;;;5093089;28;20042;-84
2023/01/15 07:05:10;;;;;;;9.80;1.73;;;5.60;99.90;;;;;;5110751;28;20043;-84
2023/01/15 07:07:36;;;;;;;7.70;1.45;;;5.60;99.90;;;;;;5093232;28;20058;-84
2023/01/15 07:10:02;;;;;;;9.63;2.40;;;5.50;99.90;;;;;;5092389;28;20039;-83
2023/01/15 07:12:29;;;;;;;7.65;1.70;;;5.50;99.90;;;;;;5127168;27;20075;-84
2023/01/15 07:14:55;;;;;;;8.63;2.47;;;5.50;99.90;;;;;;5111308;28;20067;-84
2023/01/15 07:17:20;;;;;;;7.30;1.65;;;5.60;99.90;;;;;;5110178;28;20507;-84
2023/01/15 07:19:46;;;;;;;9.52;2.00;;;5.60;99.90;;;;;;5111122;28;20044;-84
2023/01/15 07:22:12;;;;;;;9.35;1.95;;;5.70;99.90;;;;;;5092990;28;20071;-84
2023/01/15 07:24:38;;;;;;;13.57;2.50;;;5.70;99.90;;;;;;5092518;28;20066;-84
2023/01/15 07:27:04;;;;;;;8.35;2.03;;;5.70;99.90;;;;;;5093031;28;20103;-84
2023/01/15 07:29:30;;;;;;;8.85;1.73;;;5.80;99.90;;;;;;5111053;28;20102;-84
2023/01/15 07:31:56;;;;;;;7.82;1.50;;;5.80;99.90;;;;;;5110342;28;20035;-84
2023/01/15 07:34:21;;;;;;;8.80;1.60;;;5.70;99.90;;;;;;5113552;28;20547;-84
2023/01/15 07:36:47;;;;;;;8.60;1.45;;;5.70;99.90;;;;;;5097334;28;20546;-83
2023/01/15 07:39:13;;;;;;;8.48;1.63;;;5.70;99.90;;;;;;5114665;28;20075;-84
2023/01/15 07:50:13;;;;;;;5.00;1.30;;;5.50;99.90;;;;;;5115139;28;20044;-85
2023/01/15 07:52:39;;;;;;;12.80;2.30;;;5.60;99.90;;;;;;5114449;28;20438;-84
2023/01/15 07:55:07;;;;;;;13.63;1.85;;;5.60;99.90;;;;;;5079750;28;20032;-84
2023/01/15 07:57:33;;;;;;;11.20;2.03;;;5.70;99.90;;;;;;5096524;28;20083;-84
2023/01/15 07:59:59;;;;;;;9.27;1.55;;;5.70;99.90;;;;;;5096138;28;20089;-84
2023/01/15 08:02:26;;;;;;;7.70;1.92;;;5.70;99.90;;;;;;5114855;28;20040;-84
2023/01/15 08:04:51;;;;;;;6.28;1.35;;;5.80;99.90;;;;;;5114657;28;20040;-84
2023/01/15 08:07:17;;;;;;;14.65;2.35;;;5.80;99.90;;;;;;5095831;28;20048;-83
2023/01/15 08:09:43;;;;;;;10.85;2.30;;;5.90;99.90;;;;;;5096355;28;20044;-84
2023/01/15 08:15:13;;;;;;;5.13;1.50;;;6.20;99.90;;;;;;5096647;28;20043;-84
2023/01/15 08:17:44;;;;;;;8.70;1.77;;;6.30;99.90;;;;;;5112944;28;20058;-84
2023/01/15 08:20:16;;;;;;;9.13;1.77;;;6.30;99.90;;;;;;5114032;28;20036;-85
2023/01/15 08:22:43;;;;;;;7.88;1.90;;;6.30;99.90;;;;;;5094883;28;20035;-83
2023/01/15 08:25:12;;;;;;;12.75;1.55;;;6.30;99.90;;;;;;5095995;28;20058;-84
2023/01/15 08:27:39;;;;;;;9.02;2.13;;;6.20;99.90;;;;;;5095449;28;20043;-83
2023/01/15 08:30:07;;;;;;;10.45;1.75;;;6.20;99.90;;;;;;5095858;28;20109;-83
2023/01/15 08:32:32;;;;;;;11.35;2.05;;;6.20;99.90;;;;;;5078655;28;20073;-83
2023/01/15 08:34:58;;;;;;;5.70;1.73;;;6.10;99.90;;;;;;5113413;28;20039;-84
2023/01/15 08:37:24;;;;;;;6.53;1.95;;;6.00;99.90;;;;;;5114438;28;20051;-83
2023/01/15 08:39:51;;;;;;;9.60;1.50;;;6.00;99.90;;;;;;5113989;28;20042;-84
2023/01/15 08:42:19;;;;;;;13.13;2.85;;;6.00;99.90;;;;;;5112984;28;20032;-84
2023/01/15 08:44:44;;;;;;;5.50;1.90;;;5.90;99.90;;;;;;5095194;28;20046;-84
2023/01/15 08:47:10;;;;;;;7.70;1.73;;;5.90;99.90;;;;;;5095178;28;20039;-84
2023/01/15 08:49:37;;;;;;;6.97;1.48;;;5.90;99.90;;;;;;5116392;28;20040;-83
2023/01/15 08:52:03;;;;;;;7.47;1.90;;;5.90;99.90;;;;;;5095651;28;20040;-84
2023/01/15 08:54:29;;;;;;;10.95;2.17;;;5.90;99.90;;;;;;5129726;27;20035;-83
2023/01/15 08:56:55;;;;;;;8.00;1.98;;;5.90;99.90;;;;;;5094896;28;20067;-84
2023/01/15 08:59:21;;;;;;;11.43;2.10;;;6.00;99.90;;;;;;5116425;28;20035;-84
2023/01/15 09:01:46;;;;;;;9.48;1.77;;;6.00;99.90;;;;;;5099912;28;20036;-84
2023/01/15 09:04:17;;;;;;;10.15;2.00;;;6.00;99.90;;;;;;5082129;28;20119;-84
2023/01/15 09:06:43;;;;;;;15.80;2.45;;;5.90;99.90;;;;;;5133813;27;20387;-84
2023/01/15 09:09:10;;;;;;;6.53;1.75;;;5.80;99.90;;;;;;5117154;28;20935;-84
2023/01/15 09:11:39;;;;;;;11.05;1.90;;;5.80;99.90;;;;;;5117985;28;20043;-84
2023/01/15 09:14:09;;;;;;;5.00;1.88;;;5.70;99.90;;;;;;5099531;28;20054;-83
2023/01/15 09:16:36;;;;;;;7.15;1.45;;;5.70;99.90;;;;;;5082017;28;20097;-84
2023/01/15 09:19:02;;;;;;;6.20;2.03;;;5.70;99.90;;;;;;5099927;28;20040;-83
2023/01/15 09:21:28;;;;;;;11.85;1.90;;;5.70;99.90;;;;;;5133786;27;20127;-84
2023/01/15 09:23:54;;;;;;;10.57;2.20;;;5.80;99.90;;;;;;5099069;28;20035;-83
2023/01/15 09:26:37;;;;;;;13.45;2.83;;;6.00;99.90;;;;;;5098011;28;20383;-84
2023/01/15 09:29:05;;;;;;;10.82;3.25;;;6.40;99.90;;;;;;5099292;28;20100;-83
2023/01/15 09:31:31;;;;;;;8.73;1.60;;;6.90;99.90;;;;;;5099247;28;20047;-84
2023/01/15 09:33:57;;;;;;;11.75;2.40;;;7.50;99.90;;;;;;5098971;28;20050;-83
2023/01/15 09:36:29;;;;;;;13.70;2.80;;;8.00;99.90;;;;;;5118013;28;20390;-85
2023/01/15 09:38:56;;;;;;;11.38;2.53;;;8.60;99.90;;;;;;5117194;28;20036;-84
2023/01/15 09:44:33;;;;;;;12.00;2.97;;;9.00;99.90;;;;;;5116821;28;20043;-85
2023/01/15 09:47:19;;;;;;;9.25;1.77;;;8.50;99.90;;;;;;5100187;28;20051;-84
2023/01/15 09:50:01;;;;;;;10.45;2.35;;;8.00;99.90;;;;;;5117320;28;20047;-85
2023/01/15 09:52:26;;;;;;;10.45;1.92;;;7.50;99.90;;;;;;5116961;28;20040;-84
2023/01/15 09:55:01;;;;;;;9.50;2.35;;;7.30;99.90;;;;;;5116993;28;20043;-84
2023/01/15 09:57:27;;;;;;;10.95;2.20;;;7.00;99.90;;;;;;5098187;28;20461;-84
2023/01/15 10:00:01;;;;;;;12.77;2.78;;;7.20;99.90;;;;;;5097530;28;20058;-84
2023/01/15 10:02:57;;;;;;;13.82;3.67;;;7.80;99.90;;;;;;5098512;28;20117;-85
2023/01/15 10:05:45;;;;;;;6.65;1.75;;;8.90;99.90;;;;;;5094275;28;20062;-84
2023/01/15 10:08:16;;;;;;;13.95;4.10;;;9.60;99.90;;;;;;5098609;28;20099;-88
2023/01/15 10:10:50;;;;;;;7.28;1.90;;;9.50;99.90;;;;;;5115471;28;20428;-84
2023/01/15 10:13:39;;;;;;;10.18;2.60;;;8.90;99.90;;;;;;5080632;28;20290;-84
2023/01/15 10:16:06;;;;;;;13.43;2.45;;;8.30;99.90;;;;;;5098494;28;20035;-85
2023/01/15 10:18:31;;;;;;;8.55;2.08;;;7.80;99.90;;;;;;5113173;28;20052;-85
2023/01/15 10:21:02;;;;;;;10.63;2.22;;;7.60;99.90;;;;;;5097960;28;20039;-84
2023/01/15 10:23:30;;;;;;;9.70;2.33;;;8.20;99.90;;;;;;5098044;28;20043;-85
2023/01/15 10:26:07;;;;;;;8.90;2.28;;;8.40;99.90;;;;;;5116075;28;20040;-85
2023/01/15 10:29:16;;;;;;;7.28;2.10;;;8.00;99.90;;;;;;5080670;28;20079;-85
2023/01/15 10:31:50;;;;;;;14.38;1.92;;;7.40;99.90;;;;;;5032209;28;20041;-84
2023/01/15 10:34:53;;;;;;;9.60;2.20;;;6.90;99.90;;;;;;5036070;28;20048;-86
2023/01/15 10:37:26;;;;;;;10.13;1.98;;;6.70;99.90;;;;;;5036623;28;20446;-83
2023/01/15 10:40:03;;;;;;;11.90;2.60;;;6.40;99.90;;;;;;5016172;28;20077;-84
2023/01/15 10:42:32;;;;;;;10.70;2.42;;;6.30;99.90;;;;;;5033126;28;20105;-83
2023/01/15 10:45:00;;;;;;;19.42;3.30;;;6.30;99.90;;;;;;5015981;28;20217;-83
2023/01/15 10:47:35;;;;;;;20.63;2.63;;;6.20;99.90;;;;;;5032489;28;20127;-84
2023/01/15 10:50:24;;;;;;;14.20;2.85;;;6.30;99.90;;;;;;5033109;28;20428;-84
2023/01/15 10:52:55;;;;;;;14.43;3.55;;;6.40;99.90;;;;;;5033063;28;20108;-84
2023/01/15 10:55:30;;;;;;;13.88;2.88;;;6.50;99.90;;;;;;5031748;28;20094;-84
2023/01/15 10:58:34;;;;;;;13.35;2.67;;;6.70;99.90;;;;;;5028323;28;20492;-84
2023/01/15 11:01:04;;;;;;;12.32;3.35;;;6.90;99.90;;;;;;4982707;28;20460;-84
2023/01/15 11:03:38;;;;;;;19.58;3.78;;;6.90;99.90;;;;;;5009042;28;20072;-84
2023/01/15 11:06:10;;;;;;;16.20;2.63;;;7.10;99.90;;;;;;5052446;28;20055;-84
2023/01/15 11:08:39;;;;;;;12.77;3.75;;;7.20;99.90;;;;;;5083855;28;20065;-84
2023/01/15 11:11:22;;;;;;;10.77;2.10;;;7.50;99.90;;;;;;5092779;28;20035;-84
2023/01/15 11:19:37;;;;;;;11.73;2.92;;;7.70;99.90;;;;;;5087942;28;20059;-84
2023/01/15 11:22:15;;;;;;;12.77;3.10;;;7.70;99.90;;;;;;5088181;28;20414;-83
2023/01/15 11:24:59;;;;;;;15.80;2.53;;;7.60;99.90;;;;;;5090316;28;20460;-83
2023/01/15 11:27:28;;;;;;;15.80;3.70;;;8.00;99.90;;;;;;5086801;28;20036;-85
2023/01/15 11:30:02;;;;;;;14.63;3.38;;;8.20;99.90;;;;;;5087438;28;20043;-85
2023/01/15 11:32:33;;;;;;;11.38;2.03;;;8.30;99.90;;;;;;5085289;28;20052;-84
2023/01/15 11:35:02;;;;;;;14.95;2.40;;;8.30;99.90;;;;;;5087044;28;20106;-84
2023/01/15 11:37:29;;;;;;;9.95;2.00;;;8.40;99.90;;;;;;5087369;28;20042;-84
2023/01/15 11:40:05;;;;;;;9.65;1.73;;;8.60;99.90;;;;;;5088065;28;20043;-84
2023/01/15 11:51:10;;;;;;;14.90;4.00;;;8.80;99.90;;;;;;5088067;28;20055;-84
2023/01/15 11:53:48;;;;;;;12.20;1.83;;;8.60;99.90;;;;;;5088198;28;20047;-85
2023/01/15 11:56:24;;;;;;;18.90;3.63;;;8.50;99.90;;;;;;5089052;28;20474;-85
2023/01/15 11:58:56;;;;;;;11.27;2.20;;;8.50;99.90;;;;;;5089567;28;20036;-84
2023/01/15 12:01:37;;;;;;;6.80;1.90;;;8.40;99.90;;;;;;5086774;28;20040;-85
2023/01/15 12:04:23;;;;;;;13.88;2.33;;;8.50;99.90;;;;;;5068978;28;20036;-85
2023/01/15 12:06:49;;;;;;;10.02;2.38;;;8.50;99.90;;;;;;5087756;28;20045;-85
2023/01/15 12:09:21;;;;;;;12.77;2.47;;;8.60;99.90;;;;;;5087684;28;20550;-84
2023/01/15 12:12:15;;;;;;;11.40;2.08;;;8.50;99.90;;;;;;5087322;28;20050;-84
2023/01/15 12:14:56;;;;;;;15.43;2.30;;;8.40;99.90;;;;;;5079728;28;20051;-85
2023/01/15 12:18:00;;;;;;;14.00;3.08;;;8.30;99.90;;;;;;5096618;28;20079;-85
2023/01/15 12:20:50;;;;;;;11.35;2.05;;;8.20;99.90;;;;;;4995266;28;20080;-85
2023/01/15 12:23:53;;;;;;;6.63;1.90;;;8.20;99.90;;;;;;5031350;28;20038;-84
2023/01/15 12:26:32;;;;;;;14.30;3.00;;;8.10;99.90;;;;;;5012456;28;20045;-84
2023/01/15 12:29:21;;;;;;;10.02;1.85;;;8.30;99.90;;;;;;5013513;28;20052;-85
2023/01/15 12:32:03;;;;;;;8.40;2.15;;;8.70;99.90;;;;;;5030902;28;20496;-85
2023/01/15 12:35:03;;;;;;;11.45;2.30;;;9.20;99.90;;;;;;5014357;28;20488;-84
2023/01/15 12:38:08;;;;;;;15.75;2.60;;;9.20;99.90;;;;;;5028065;28;20416;-83
2023/01/15 12:40:55;;;;;;;6.68;2.22;;;9.20;99.90;;;;;;5021102;28;20049;-87
2023/01/15 12:46:18;;;;;;;15.18;2.38;;;9.00;99.90;;;;;;5010128;28;20034;-85
2023/01/15 12:49:05;;;;;;;8.40;2.47;;;9.00;99.90;;;;;;5012152;28;20163;-85
2023/01/15 12:51:53;;;;;;;8.70;2.50;;;8.90;99.90;;;;;;5014229;28;20052;-85
2023/01/15 12:54:28;;;;;;;16.50;5.60;;;8.80;99.90;;;;;;5029820;28;20716;-84
2023/01/15 12:57:05;;;;;;;11.85;4.50;;;8.80;99.90;;;;;;5079252;28;20040;-84
2023/01/15 12:59:59;;;;;;;11.15;2.42;;;8.60;99.90;;;;;;5093360;28;20040;-85
2023/01/15 13:02:55;;;;;;;9.18;2.70;;;8.40;99.90;;;;;;5084562;28;20069;-85
2023/01/15 13:05:25;;;;;;;6.80;2.30;;;8.20;99.90;;;;;;5092824;28;20082;-86
2023/01/15 13:08:03;;;;;;;;;;;8.00;99.90;;;;;;5088999;28;20040;-84
2023/01/15 13:10:33;;;;;;;11.50;2.60;;;7.90;99.90;;;;;;5088936;28;19920;-84
2023/01/15 13:13:23;;;;;;;14.07;2.40;;;7.70;99.90;;;;;;5071328;28;20048;-84
2023/01/15 13:16:19;;;;;;;15.93;2.85;;;7.40;99.90;;;;;;5085066;28;20048;-84
2023/01/15 13:19:08;;;;;;;8.57;2.05;;;7.10;99.90;;;;;;5070152;28;20051;-85
2023/01/15 13:21:35;;;;;;;10.95;2.00;;;6.60;99.90;;;;;;5068316;28;20127;-84
2023/01/15 13:24:07;;;;;;;8.48;2.42;;;6.30;99.90;;;;;;5068616;28;20041;-84
2023/01/15 13:26:51;;;;;;;10.70;2.72;;;6.20;99.90;;;;;;5070039;28;20452;-84
2023/01/15 13:29:26;;;;;;;7.97;1.90;;;6.00;99.90;;;;;;5069215;28;20052;-84
2023/01/15 13:32:17;;;;;;;12.75;3.45;;;6.00;99.90;;;;;;5069576;28;20045;-84
2023/01/15 13:34:49;;;;;;;8.80;2.10;;;5.90;99.90;;;;;;5068646;28;20534;-84
2023/01/15 13:37:15;;;;;;;5.90;1.83;;;5.90;99.90;;;;;;5069777;28;20118;-84
2023/01/15 13:39:44;;;;;;;2.65;0.60;;;5.90;99.90;;;;;;5069678;28;20484;-84
2023/01/15 13:42:32;;;;;;;4.80;0.70;;;5.80;99.90;;;;;;5067492;28;20483;-83
2023/01/15 13:45:26;;;;;;;2.28;0.90;;;5.50;99.90;;;;;;5068378;28;20040;-84
2023/01/15 13:48:01;;;;;;;4.85;1.30;;;5.30;99.90;;;;;;5051517;28;20547;-84
2023/01/15 13:50:36;;;;;;;6.93;1.30;;;5.30;99.90;;;;;;5067863;28;20057;-84
2023/01/15 13:53:11;;;;;;;6.95;1.70;;;5.40;99.90;;;;;;5071845;28;20076;-86
2023/01/15 13:55:40;;;;;;;5.93;1.38;;;5.50;99.90;;;;;;5056938;28;20072;-83
2023/01/15 13:58:31;;;;;;;5.15;1.60;;;5.60;99.90;;;;;;5069510;28;20074;-84
2023/01/15 14:01:03;;;;;;;8.57;1.58;;;5.70;99.90;;;;;;5071614;28;20575;-83
2023/01/15 14:03:31;;;;;;;6.97;1.25;;;5.80;99.90;;;;;;5069552;28;20068;-83